createdAt,value
2023-05-09T00:00:05.969Z,11.50
2023-05-09T00:02:03.504Z,11.50
2023-05-09T00:04:04.127Z,11.50
2023-05-09T00:05:03.795Z,11.50
2023-05-09T00:06:03.480Z,11.50
2023-05-09T00:07:04.086Z,11.50
2023-05-09T00:09:06.654Z,11.40
2023-05-09T00:10:04.384Z,11.50
2023-05-09T00:11:09.128Z,11.40
2023-05-09T00:12:06.196Z,11.50
2023-05-09T00:13:03.701Z,11.40
2023-05-09T00:14:03.270Z,11.50
2023-05-09T00:15:03.826Z,11.40
2023-05-09T00:17:03.466Z,11.40
2023-05-09T00:18:04.038Z,11.40
2023-05-09T00:20:05.776Z,11.40
2023-05-09T00:21:05.747Z,11.40
2023-05-09T00:22:03.166Z,11.30
2023-05-09T00:24:06.681Z,11.30
2023-05-09T00:25:04.102Z,11.30
2023-05-09T00:26:08.794Z,11.30
2023-05-09T00:27:03.271Z,11.30
2023-05-09T00:28:03.877Z,11.30
2023-05-09T00:29:06.033Z,11.30
2023-05-09T00:30:06.089Z,11.30
2023-05-09T00:31:06.081Z,11.20
2023-05-09T00:32:06.172Z,11.30
2023-05-09T00:33:03.780Z,11.20
2023-05-09T00:34:03.570Z,11.20
2023-05-09T00:36:06.268Z,11.20
2023-05-09T00:37:03.769Z,11.20
2023-05-09T00:38:05.883Z,11.20
2023-05-09T00:40:03.619Z,11.10
2023-05-09T00:41:05.829Z,11.20
2023-05-09T00:43:03.746Z,11.20
2023-05-09T00:44:03.332Z,11.10
2023-05-09T00:45:03.870Z,11.10
2023-05-09T00:46:06.040Z,11.10
2023-05-09T00:47:03.556Z,11.10
2023-05-09T00:48:04.186Z,11.10
2023-05-09T00:50:05.711Z,11.10
2023-05-09T00:51:05.717Z,11.10
2023-05-09T00:52:06.743Z,11.10
2023-05-09T00:54:03.590Z,11.10
2023-05-09T00:55:05.745Z,11.00
2023-05-09T00:56:08.384Z,11.00
2023-05-09T00:57:03.769Z,11.00
2023-05-09T00:58:05.906Z,11.00
2023-05-09T00:59:05.926Z,11.00
2023-05-09T01:00:05.948Z,11.10
2023-05-09T01:01:03.524Z,11.00
2023-05-09T01:02:04.120Z,11.00
2023-05-09T01:04:03.546Z,11.00
2023-05-09T01:07:03.350Z,11.00
2023-05-09T01:08:03.872Z,10.90
2023-05-09T01:09:05.977Z,10.90
2023-05-09T01:11:08.829Z,10.90
2023-05-09T01:12:05.835Z,10.90
2023-05-09T01:13:03.368Z,10.90
2023-05-09T01:14:06.658Z,10.90
2023-05-09T01:16:06.329Z,10.90
2023-05-09T01:17:06.613Z,10.80
2023-05-09T01:18:04.157Z,10.80
2023-05-09T01:19:06.476Z,10.80
2023-05-09T01:20:03.939Z,10.80
2023-05-09T01:21:03.523Z,10.80
2023-05-09T01:22:06.718Z,10.80
2023-05-09T01:23:05.793Z,10.80
2023-05-09T01:24:05.922Z,10.80
2023-05-09T01:26:04.029Z,10.70
2023-05-09T01:27:06.207Z,10.70
2023-05-09T01:28:06.256Z,10.70
2023-05-09T01:29:03.721Z,10.70
2023-05-09T01:30:03.274Z,10.70
2023-05-09T01:31:04.066Z,10.70
2023-05-09T01:33:05.893Z,10.70
2023-05-09T01:34:06.013Z,10.70
2023-05-09T01:35:03.492Z,10.70
2023-05-09T01:36:04.057Z,10.70
2023-05-09T01:37:06.224Z,10.60
2023-05-09T01:38:06.293Z,10.60
2023-05-09T01:39:06.244Z,10.60
2023-05-09T01:40:06.422Z,10.60
2023-05-09T01:41:06.432Z,10.60
2023-05-09T01:42:03.945Z,10.60
2023-05-09T01:43:08.558Z,10.60
2023-05-09T01:44:06.733Z,10.60
2023-05-09T01:48:04.739Z,10.60
2023-05-09T01:50:04.056Z,10.60
2023-05-09T01:52:03.533Z,10.60
2023-05-09T01:53:05.815Z,10.60
2023-05-09T01:54:03.305Z,10.60
2023-05-09T01:55:03.775Z,10.60
2023-05-09T01:57:06.590Z,10.60
2023-05-09T01:58:06.547Z,10.60
2023-05-09T01:59:09.183Z,10.50
2023-05-09T02:00:06.177Z,10.50
2023-05-09T02:01:06.255Z,10.50
2023-05-09T02:02:03.958Z,10.50
2023-05-09T02:03:03.594Z,10.50
2023-05-09T02:04:05.839Z,10.50
2023-05-09T02:05:03.305Z,10.50
2023-05-09T02:06:03.936Z,10.50
2023-05-09T02:08:06.580Z,10.40
2023-05-09T02:09:04.049Z,10.50
2023-05-09T02:11:03.300Z,10.50
2023-05-09T02:12:03.868Z,10.40
2023-05-09T02:14:05.706Z,10.40
2023-05-09T02:15:04.154Z,10.40
2023-05-09T02:16:03.882Z,10.30
2023-05-09T02:18:05.737Z,10.30
2023-05-09T02:19:05.947Z,10.30
2023-05-09T02:20:03.428Z,10.30
2023-05-09T02:21:03.991Z,10.40
2023-05-09T02:22:06.202Z,10.30
2023-05-09T02:23:03.616Z,10.30
2023-05-09T02:24:03.276Z,10.30
2023-05-09T02:25:06.455Z,10.30
2023-05-09T02:26:03.970Z,10.30
2023-05-09T02:27:06.202Z,10.30
2023-05-09T02:28:03.687Z,10.30
2023-05-09T02:29:03.320Z,10.30
2023-05-09T02:30:03.923Z,10.30
2023-05-09T02:31:08.574Z,10.30
2023-05-09T02:32:04.124Z,10.30
2023-05-09T02:33:06.417Z,10.30
2023-05-09T02:34:06.583Z,10.20
2023-05-09T02:35:06.558Z,10.20
2023-05-09T02:36:03.973Z,10.30
2023-05-09T02:37:03.584Z,10.20
2023-05-09T02:38:03.184Z,10.20
2023-05-09T02:39:03.763Z,10.20
2023-05-09T02:42:06.254Z,10.30
2023-05-09T02:43:03.699Z,10.20
2023-05-09T02:44:06.049Z,10.20
2023-05-09T02:45:03.518Z,10.20
2023-05-09T02:46:04.137Z,10.20
2023-05-09T02:47:06.304Z,10.20
2023-05-09T02:48:05.103Z,10.10
2023-05-09T02:49:06.696Z,10.20
2023-05-09T02:51:03.744Z,10.10
2023-05-09T02:53:06.271Z,10.10
2023-05-09T02:54:06.357Z,10.20
2023-05-09T02:55:03.867Z,10.00
2023-05-09T02:57:03.254Z,10.00
2023-05-09T02:58:13.198Z,10.00
2023-05-09T02:59:06.117Z,10.10
2023-05-09T03:00:03.607Z,10.00
2023-05-09T03:01:03.223Z,10.00
2023-05-09T03:02:03.965Z,10.00
2023-05-09T03:03:03.725Z,10.00
2023-05-09T03:04:06.038Z,10.00
2023-05-09T03:05:03.611Z,10.00
2023-05-09T03:06:03.224Z,10.00
2023-05-09T03:07:03.934Z,10.00
2023-05-09T03:08:03.631Z,10.00
2023-05-09T03:09:05.807Z,10.00
2023-05-09T03:10:03.370Z,10.00
2023-05-09T03:11:06.495Z,9.90
2023-05-09T03:12:06.504Z,9.90
2023-05-09T03:13:04.020Z,10.00
2023-05-09T03:16:06.430Z,9.90
2023-05-09T03:17:04.005Z,9.90
2023-05-09T03:18:06.323Z,9.80
2023-05-09T03:19:06.688Z,9.90
2023-05-09T03:21:08.649Z,9.90
2023-05-09T03:22:06.671Z,9.80
2023-05-09T03:23:04.176Z,9.80
2023-05-09T03:24:06.406Z,9.70
2023-05-09T03:25:03.895Z,9.70
2023-05-09T03:26:03.463Z,9.70
2023-05-09T03:27:06.675Z,9.60
2023-05-09T03:29:03.919Z,9.70
2023-05-09T03:30:03.618Z,9.70
2023-05-09T03:31:03.238Z,9.70
2023-05-09T03:32:03.911Z,9.70
2023-05-09T03:33:08.550Z,9.70
2023-05-09T03:34:03.179Z,9.70
2023-05-09T03:35:06.393Z,9.70
2023-05-09T03:36:04.198Z,9.70
2023-05-09T03:37:06.374Z,9.70
2023-05-09T03:38:06.431Z,9.70
2023-05-09T03:39:06.522Z,9.70
2023-05-09T03:40:04.011Z,9.70
2023-05-09T03:41:06.108Z,9.70
2023-05-09T03:43:03.545Z,9.70
2023-05-09T03:44:05.809Z,9.70
2023-05-09T03:45:03.508Z,9.70
2023-05-09T03:46:05.915Z,9.70
2023-05-09T03:47:06.119Z,9.80
2023-05-09T03:48:03.926Z,9.70
2023-05-09T03:49:06.323Z,9.80
2023-05-09T03:50:06.438Z,9.80
2023-05-09T03:52:06.344Z,9.80
2023-05-09T03:53:03.989Z,9.80
2023-05-09T03:54:03.604Z,9.90
2023-05-09T03:55:03.187Z,10.00
2023-05-09T03:57:03.802Z,9.90
2023-05-09T03:59:04.080Z,10.00
2023-05-09T04:00:06.348Z,10.00
2023-05-09T04:01:03.322Z,9.90
2023-05-09T04:02:09.185Z,10.00
2023-05-09T04:03:06.437Z,10.00
2023-05-09T04:04:04.159Z,10.00
2023-05-09T04:05:03.929Z,10.10
2023-05-09T04:06:03.620Z,10.00
2023-05-09T04:08:03.741Z,10.00
2023-05-09T04:09:03.493Z,10.10
2023-05-09T04:10:05.792Z,10.10
2023-05-09T04:11:05.836Z,10.10
2023-05-09T04:12:05.901Z,10.10
2023-05-09T04:13:03.361Z,10.00
2023-05-09T04:14:04.092Z,10.00
2023-05-09T04:15:11.386Z,10.00
2023-05-09T04:16:03.930Z,10.00
2023-05-09T04:17:03.790Z,10.10
2023-05-09T04:18:06.174Z,10.00
2023-05-09T04:19:06.386Z,10.10
2023-05-09T04:20:06.427Z,10.00
2023-05-09T04:21:06.468Z,10.00
2023-05-09T04:23:03.361Z,10.00
2023-05-09T04:24:09.059Z,10.00
2023-05-09T04:25:06.560Z,10.10
2023-05-09T04:26:06.531Z,10.10
2023-05-09T04:27:06.561Z,10.20
2023-05-09T04:30:10.020Z,10.40
2023-05-09T04:32:04.229Z,10.70
2023-05-09T04:33:14.171Z,11.00
2023-05-09T04:34:03.647Z,11.00
2023-05-09T04:35:05.770Z,11.30
2023-05-09T04:36:03.383Z,11.30
2023-05-09T04:38:03.256Z,11.80
2023-05-09T04:39:03.898Z,12.10
2023-05-09T04:40:06.035Z,12.40
2023-05-09T04:41:03.574Z,12.40
2023-05-09T04:43:03.546Z,12.80
2023-05-09T04:44:05.841Z,13.20
2023-05-09T04:45:03.368Z,13.20
2023-05-09T04:46:09.126Z,13.70
2023-05-09T04:48:05.881Z,14.00
2023-05-09T04:49:03.532Z,14.00
2023-05-09T04:50:04.127Z,14.10
2023-05-09T04:51:06.505Z,14.50
2023-05-09T04:52:06.569Z,14.60
2023-05-09T04:53:04.104Z,14.60
2023-05-09T04:55:03.381Z,14.90
2023-05-09T04:56:06.062Z,15.10
2023-05-09T04:58:06.508Z,15.40
2023-05-09T05:01:03.507Z,15.50
2023-05-09T05:03:06.205Z,15.70
2023-05-09T05:04:03.747Z,15.60
2023-05-09T05:06:03.556Z,15.80
2023-05-09T05:08:11.284Z,16.00
2023-05-09T05:10:03.691Z,16.10
2023-05-09T05:12:05.532Z,16.30
2023-05-09T05:14:03.333Z,16.40
2023-05-09T05:16:06.058Z,16.70
2023-05-09T05:17:06.294Z,16.80
2023-05-09T05:18:11.340Z,16.70
2023-05-09T05:19:03.825Z,16.80
2023-05-09T05:20:03.442Z,16.90
2023-05-09T05:22:03.666Z,17.00
2023-05-09T05:23:03.360Z,17.10
2023-05-09T05:24:04.052Z,17.30
2023-05-09T05:25:03.600Z,17.20
2023-05-09T05:26:03.221Z,17.30
2023-05-09T05:27:03.827Z,17.30
2023-05-09T05:28:08.553Z,17.50
2023-05-09T05:29:04.080Z,17.50
2023-05-09T05:30:04.011Z,17.50
2023-05-09T05:31:06.299Z,17.90
2023-05-09T05:32:06.547Z,18.00
2023-05-09T05:33:04.122Z,18.00
2023-05-09T05:34:06.253Z,18.20
2023-05-09T05:35:03.835Z,18.20
2023-05-09T05:36:03.488Z,18.30
2023-05-09T05:37:11.727Z,18.40
2023-05-09T05:39:06.119Z,18.60
2023-05-09T05:40:03.760Z,18.60
2023-05-09T05:42:06.427Z,18.80
2023-05-09T05:43:04.036Z,18.70
2023-05-09T05:44:06.587Z,19.00
2023-05-09T05:46:06.204Z,19.10
2023-05-09T05:47:06.342Z,19.10
2023-05-09T05:48:04.038Z,19.10
2023-05-09T05:49:03.775Z,19.10
2023-05-09T05:52:08.163Z,19.40
2023-05-09T05:53:09.147Z,19.50
2023-05-09T05:55:05.802Z,19.70
2023-05-09T05:56:05.864Z,19.70
2023-05-09T05:57:06.024Z,19.60
2023-05-09T05:59:06.448Z,19.60
2023-05-09T06:00:06.572Z,19.60
2023-05-09T06:01:03.200Z,19.60
2023-05-09T06:02:04.124Z,19.70
2023-05-09T06:03:03.949Z,19.60
2023-05-09T06:04:03.778Z,19.60
2023-05-09T06:05:03.497Z,19.70
2023-05-09T06:06:06.675Z,19.70
2023-05-09T06:07:05.740Z,19.70
2023-05-09T06:08:03.178Z,19.60
2023-05-09T06:09:06.282Z,19.70
2023-05-09T06:10:03.704Z,19.70
2023-05-09T06:11:06.039Z,19.60
2023-05-09T06:12:03.618Z,19.60
2023-05-09T06:13:08.374Z,19.60
2023-05-09T06:14:04.053Z,19.60
2023-05-09T06:15:06.131Z,19.70
2023-05-09T06:18:04.263Z,19.90
2023-05-09T06:19:04.039Z,19.90
2023-05-09T06:20:03.740Z,19.90
2023-05-09T06:22:04.022Z,20.10
2023-05-09T06:23:03.598Z,20.10
2023-05-09T06:24:08.238Z,20.10
2023-05-09T06:25:08.756Z,20.10
2023-05-09T06:26:06.588Z,20.00
2023-05-09T06:27:04.067Z,20.00
2023-05-09T06:28:06.219Z,20.00
2023-05-09T06:30:11.315Z,20.10
2023-05-09T06:31:06.668Z,20.20
2023-05-09T06:32:08.249Z,20.20
2023-05-09T06:36:11.833Z,20.30
2023-05-09T06:38:06.532Z,20.40
2023-05-09T06:39:06.492Z,20.40
2023-05-09T06:40:04.002Z,20.40
2023-05-09T06:41:03.665Z,20.40
2023-05-09T06:42:03.292Z,20.30
2023-05-09T06:43:06.406Z,20.30
2023-05-09T06:44:03.991Z,20.30
2023-05-09T06:45:03.640Z,20.30
2023-05-09T06:47:03.775Z,20.30
2023-05-09T06:48:05.981Z,20.40
2023-05-09T06:49:03.507Z,20.40
2023-05-09T06:50:04.123Z,20.30
2023-05-09T06:52:05.949Z,20.50
2023-05-09T06:54:06.431Z,20.50
2023-05-09T06:55:04.146Z,20.50
2023-05-09T06:57:03.278Z,20.60
2023-05-09T06:58:06.320Z,20.60
2023-05-09T06:59:03.851Z,20.60
2023-05-09T07:00:05.989Z,20.50
2023-05-09T07:01:03.627Z,20.40
2023-05-09T07:02:03.394Z,20.40
2023-05-09T07:03:04.104Z,20.30
2023-05-09T07:04:06.512Z,20.40
2023-05-09T07:05:04.145Z,20.40
2023-05-09T07:06:06.374Z,20.40
2023-05-09T07:07:03.836Z,20.40
2023-05-09T07:08:05.923Z,20.40
2023-05-09T07:09:03.379Z,20.40
2023-05-09T07:10:10.991Z,20.40
2023-05-09T07:12:06.404Z,20.10
2023-05-09T07:13:03.965Z,20.10
2023-05-09T07:14:03.730Z,20.00
2023-05-09T07:15:03.395Z,20.00
2023-05-09T07:16:04.019Z,19.90
2023-05-09T07:17:18.651Z,19.90
2023-05-09T07:19:03.882Z,19.80
2023-05-09T07:20:06.029Z,19.70
2023-05-09T07:21:03.595Z,19.70
2023-05-09T07:22:08.385Z,19.70
2023-05-09T07:23:04.063Z,19.70
2023-05-09T07:24:06.381Z,19.90
2023-05-09T07:26:03.320Z,19.90
2023-05-09T07:28:08.832Z,20.00
2023-05-09T07:30:08.453Z,20.00
2023-05-09T07:31:09.163Z,19.90
2023-05-09T07:33:04.117Z,19.90
2023-05-09T07:34:06.360Z,19.80
2023-05-09T07:36:06.638Z,19.70
2023-05-09T07:37:06.694Z,19.80
2023-05-09T07:39:03.860Z,19.70
2023-05-09T07:40:03.447Z,19.70
2023-05-09T07:41:06.569Z,19.70
2023-05-09T07:42:06.654Z,19.70
2023-05-09T07:43:08.276Z,19.70
2023-05-09T07:44:03.845Z,19.70
2023-05-09T07:48:03.988Z,19.70
2023-05-09T07:49:06.266Z,19.70
2023-05-09T07:50:03.839Z,19.70
2023-05-09T07:51:06.094Z,19.80
2023-05-09T07:52:03.636Z,19.80
2023-05-09T07:53:03.312Z,19.90
2023-05-09T07:54:04.029Z,19.90
2023-05-09T07:55:03.720Z,20.00
2023-05-09T07:56:05.964Z,20.10
2023-05-09T07:59:04.149Z,20.30
2023-05-09T08:00:03.920Z,20.30
2023-05-09T08:01:11.294Z,20.50
2023-05-09T08:02:03.776Z,20.50
2023-05-09T08:04:03.933Z,20.60
2023-05-09T08:06:08.907Z,20.90
2023-05-09T08:07:06.119Z,20.90
2023-05-09T08:08:06.194Z,21.10
2023-05-09T08:09:08.910Z,21.10
2023-05-09T08:10:03.506Z,21.10
2023-05-09T08:11:05.736Z,8.30
2023-05-09T08:13:03.648Z,21.10
2023-05-09T08:15:03.991Z,21.20
2023-05-09T08:16:03.640Z,21.10
2023-05-09T08:17:03.356Z,21.10
2023-05-09T08:18:04.052Z,21.10
2023-05-09T08:19:06.249Z,21.10
2023-05-09T08:20:06.266Z,21.10
2023-05-09T08:21:03.756Z,21.10
2023-05-09T08:22:03.401Z,21.10
2023-05-09T08:23:04.055Z,21.10
2023-05-09T08:25:08.331Z,21.10
2023-05-09T08:26:06.460Z,21.10
2023-05-09T08:27:04.066Z,21.10
2023-05-09T08:28:03.719Z,21.10
2023-05-09T08:29:05.987Z,21.10
2023-05-09T08:30:03.610Z,21.10
2023-05-09T08:32:03.742Z,21.10
2023-05-09T08:34:04.223Z,21.10
2023-05-09T08:35:06.503Z,21.20
2023-05-09T08:36:06.632Z,21.20
2023-05-09T08:40:03.700Z,21.20
2023-05-09T08:41:03.278Z,21.10
2023-05-09T08:42:04.041Z,21.10
2023-05-09T08:43:03.803Z,21.10
2023-05-09T08:44:05.913Z,20.90
2023-05-09T08:45:05.937Z,20.90
2023-05-09T08:46:08.640Z,20.80
2023-05-09T08:47:03.286Z,20.80
2023-05-09T08:48:03.580Z,20.90
2023-05-09T08:49:08.615Z,20.90
2023-05-09T08:50:09.166Z,20.80
2023-05-09T08:52:04.089Z,20.90
2023-05-09T08:53:03.988Z,20.90
2023-05-09T08:54:03.595Z,20.70
2023-05-09T08:55:03.258Z,20.90
2023-05-09T08:56:03.794Z,20.80
2023-05-09T08:57:03.406Z,20.80
2023-05-09T08:58:09.106Z,20.90
2023-05-09T08:59:06.133Z,21.00
2023-05-09T09:00:03.630Z,20.90
2023-05-09T09:01:03.172Z,21.00
2023-05-09T09:03:04.257Z,21.10
2023-05-09T09:06:06.718Z,21.00
2023-05-09T09:08:03.199Z,21.00
2023-05-09T09:09:06.524Z,20.90
2023-05-09T09:10:06.047Z,20.90
2023-05-09T09:12:03.358Z,20.90
2023-05-09T09:13:09.192Z,20.80
2023-05-09T09:14:06.511Z,20.80
2023-05-09T09:15:04.088Z,20.80
2023-05-09T09:16:03.703Z,20.90
2023-05-09T09:18:05.319Z,20.90
2023-05-09T09:19:08.935Z,20.80
2023-05-09T09:20:06.118Z,20.80
2023-05-09T09:21:06.121Z,20.90
2023-05-09T09:22:03.658Z,20.80
2023-05-09T09:24:03.671Z,20.90
2023-05-09T09:25:03.286Z,20.90
2023-05-09T09:27:03.278Z,20.90
2023-05-09T09:28:03.845Z,20.90
2023-05-09T09:29:03.531Z,20.90
2023-05-09T09:30:06.705Z,20.90
2023-05-09T09:34:08.792Z,21.20
2023-05-09T09:35:05.789Z,21.20
2023-05-09T09:36:03.244Z,21.20
2023-05-09T09:37:03.961Z,21.20
2023-05-09T09:38:03.692Z,21.20
2023-05-09T09:39:03.317Z,21.20
2023-05-09T09:40:06.545Z,21.20
2023-05-09T09:41:09.065Z,21.20
2023-05-09T09:43:03.878Z,21.20
2023-05-09T09:44:06.058Z,21.30
2023-05-09T09:45:03.513Z,21.30
2023-05-09T09:46:06.731Z,21.30
2023-05-09T09:48:04.051Z,21.40
2023-05-09T09:49:03.710Z,21.40
2023-05-09T09:50:05.926Z,21.40
2023-05-09T09:51:11.269Z,21.40
2023-05-09T09:52:04.023Z,21.40
2023-05-09T09:53:08.662Z,21.50
2023-05-09T09:55:06.237Z,21.60
2023-05-09T09:56:03.654Z,21.50
2023-05-09T09:57:03.216Z,21.50
2023-05-09T09:58:03.807Z,21.60
2023-05-09T09:59:06.009Z,21.70
2023-05-09T10:00:03.592Z,21.70
2023-05-09T10:01:08.332Z,21.80
2023-05-09T10:02:06.953Z,21.80
2023-05-09T10:04:06.301Z,21.90
2023-05-09T10:05:04.015Z,21.90
2023-05-09T10:06:03.688Z,21.90
2023-05-09T10:07:05.981Z,22.00
2023-05-09T10:08:03.729Z,22.00
2023-05-09T10:10:04.191Z,22.10
2023-05-09T10:11:03.990Z,22.10
2023-05-09T10:12:03.696Z,22.10
2023-05-09T10:14:03.705Z,22.10
2023-05-09T10:15:08.436Z,22.20
2023-05-09T10:16:06.665Z,22.20
2023-05-09T10:18:03.821Z,22.10
2023-05-09T10:19:03.814Z,22.10
2023-05-09T10:20:03.437Z,22.00
2023-05-09T10:21:04.074Z,22.00
2023-05-09T10:22:03.750Z,21.90
2023-05-09T10:23:05.897Z,21.90
2023-05-09T10:24:03.416Z,21.90
2023-05-09T10:25:06.654Z,21.80
2023-05-09T10:26:03.361Z,21.80
2023-05-09T10:27:03.973Z,21.80
2023-05-09T10:28:06.242Z,21.80
2023-05-09T10:29:03.837Z,21.80
2023-05-09T10:30:03.493Z,21.80
2023-05-09T10:31:07.121Z,21.80
2023-05-09T10:32:08.489Z,21.80
2023-05-09T10:33:06.522Z,21.80
2023-05-09T10:34:04.273Z,21.80
2023-05-09T10:35:06.499Z,21.80
2023-05-09T10:36:06.777Z,21.70
2023-05-09T10:38:06.202Z,21.60
2023-05-09T10:39:11.477Z,21.60
2023-05-09T10:40:04.071Z,21.60
2023-05-09T10:41:06.255Z,21.60
2023-05-09T10:42:06.380Z,21.60
2023-05-09T10:43:06.441Z,21.60
2023-05-09T10:44:03.927Z,21.60
2023-05-09T10:45:03.484Z,21.60
2023-05-09T10:46:09.167Z,21.70
2023-05-09T10:47:04.024Z,21.70
2023-05-09T10:48:09.243Z,21.80
2023-05-09T10:50:03.416Z,21.90
2023-05-09T10:51:06.673Z,21.90
2023-05-09T10:52:04.198Z,21.90
2023-05-09T10:53:03.873Z,21.90
2023-05-09T10:55:06.453Z,21.90
2023-05-09T10:56:03.893Z,21.90
2023-05-09T10:57:03.547Z,21.90
2023-05-09T10:58:03.185Z,21.80
2023-05-09T10:59:03.749Z,21.80
2023-05-09T11:00:05.860Z,21.70
2023-05-09T11:02:08.983Z,21.70
2023-05-09T11:03:06.235Z,21.60
2023-05-09T11:04:06.387Z,21.50
2023-05-09T11:05:06.571Z,21.50
2023-05-09T11:06:04.076Z,21.50
2023-05-09T11:07:03.755Z,21.50
2023-05-09T11:08:03.417Z,21.50
2023-05-09T11:09:03.966Z,21.60
2023-05-09T11:10:06.090Z,21.60
2023-05-09T11:11:04.060Z,21.60
2023-05-09T11:13:04.192Z,21.60
2023-05-09T11:14:06.396Z,21.60
2023-05-09T11:16:03.508Z,21.60
2023-05-09T11:17:03.366Z,21.50
2023-05-09T11:19:03.380Z,21.50
2023-05-09T11:20:04.060Z,21.60
2023-05-09T11:21:06.202Z,21.50
2023-05-09T11:23:04.116Z,21.50
2023-05-09T11:24:06.176Z,21.50
2023-05-09T11:25:11.242Z,21.50
2023-05-09T11:26:06.333Z,21.50
2023-05-09T11:27:03.772Z,21.50
2023-05-09T11:28:03.389Z,21.60
2023-05-09T11:29:04.073Z,21.60
2023-05-09T11:31:05.869Z,21.60
2023-05-09T11:32:03.438Z,21.60
2023-05-09T11:33:04.083Z,21.60
2023-05-09T11:35:03.302Z,21.60
2023-05-09T11:36:06.440Z,21.60
2023-05-09T11:37:06.542Z,21.60
2023-05-09T11:38:11.293Z,21.60
2023-05-09T11:39:06.370Z,21.50
2023-05-09T11:40:06.594Z,21.50
2023-05-09T11:41:06.764Z,21.50
2023-05-09T11:43:03.892Z,21.50
2023-05-09T11:44:03.691Z,21.50
2023-05-09T11:45:03.385Z,21.40
2023-05-09T11:46:06.610Z,21.50
2023-05-09T11:48:06.388Z,21.50
2023-05-09T11:50:03.489Z,21.40
2023-05-09T11:51:08.311Z,21.50
2023-05-09T11:52:03.858Z,21.50
2023-05-09T11:53:03.610Z,21.50
2023-05-09T11:54:05.790Z,21.60
2023-05-09T11:56:03.658Z,21.60
2023-05-09T11:57:08.319Z,21.60
2023-05-09T11:58:03.830Z,21.70
2023-05-09T11:59:06.123Z,21.70
2023-05-09T12:00:03.190Z,21.70
2023-05-09T12:01:03.868Z,21.70
2023-05-09T12:02:06.101Z,21.70
2023-05-09T12:03:03.757Z,21.70
2023-05-09T12:04:03.490Z,21.70
2023-05-09T12:06:08.977Z,21.80
2023-05-09T12:07:03.439Z,21.80
2023-05-09T12:08:04.109Z,21.90
2023-05-09T12:09:03.683Z,21.90
2023-05-09T12:10:03.343Z,21.90
2023-05-09T12:11:06.563Z,21.90
2023-05-09T12:12:09.141Z,22.00
2023-05-09T12:14:06.614Z,22.00
2023-05-09T12:16:04.583Z,22.10
2023-05-09T12:18:11.623Z,22.10
2023-05-09T12:19:05.836Z,22.10
2023-05-09T12:20:03.356Z,22.10
2023-05-09T12:21:04.026Z,22.10
2023-05-09T12:22:03.713Z,22.00
2023-05-09T12:23:03.238Z,22.00
2023-05-09T12:24:03.879Z,22.00
2023-05-09T12:25:08.519Z,22.00
2023-05-09T12:26:04.115Z,22.00
2023-05-09T12:27:03.799Z,22.10
2023-05-09T12:28:03.482Z,22.10
2023-05-09T12:29:03.257Z,22.10
2023-05-09T12:30:03.833Z,22.10
2023-05-09T12:31:03.393Z,22.10
2023-05-09T12:32:06.682Z,22.20
2023-05-09T12:35:06.128Z,22.20
2023-05-09T12:36:06.122Z,22.10
2023-05-09T12:37:03.775Z,22.10
2023-05-09T12:38:06.092Z,22.10
2023-05-09T12:39:08.636Z,22.10
2023-05-09T12:40:04.234Z,22.10
2023-05-09T12:41:04.075Z,22.30
2023-05-09T12:43:03.689Z,22.00
2023-05-09T12:45:04.006Z,22.00
2023-05-09T12:46:03.797Z,22.00
2023-05-09T12:48:03.842Z,22.00
2023-05-09T12:50:04.202Z,21.90
2023-05-09T12:52:04.823Z,22.00
2023-05-09T12:53:03.802Z,21.90
2023-05-09T12:55:03.939Z,22.00
2023-05-09T12:57:04.040Z,22.10
2023-05-09T12:59:03.488Z,22.00
2023-05-09T13:00:04.097Z,22.10
2023-05-09T13:01:12.013Z,22.00
2023-05-09T13:02:06.154Z,22.00
2023-05-09T13:04:06.496Z,22.00
2023-05-09T13:05:06.605Z,22.00
2023-05-09T13:06:03.313Z,22.00
2023-05-09T13:07:04.034Z,22.00
2023-05-09T13:08:03.632Z,22.00
2023-05-09T13:09:03.262Z,22.00
2023-05-09T13:10:03.857Z,21.90
2023-05-09T13:11:14.674Z,21.90
2023-05-09T13:12:03.488Z,21.90
2023-05-09T13:13:04.146Z,21.90
2023-05-09T13:14:06.456Z,22.00
2023-05-09T13:16:17.600Z,22.00
2023-05-09T13:18:03.274Z,22.00
2023-05-09T13:19:03.911Z,22.00
2023-05-09T13:20:03.557Z,22.00
2023-05-09T13:21:03.232Z,22.00
2023-05-09T13:23:08.583Z,22.10
2023-05-09T13:24:06.691Z,22.10
2023-05-09T13:26:03.595Z,22.20
2023-05-09T13:27:03.169Z,22.20
2023-05-09T13:28:04.768Z,22.20
2023-05-09T13:29:03.864Z,22.10
2023-05-09T13:30:03.489Z,22.10
2023-05-09T13:31:03.226Z,22.10
2023-05-09T13:32:06.533Z,22.10
2023-05-09T13:33:13.113Z,22.10
2023-05-09T13:35:06.806Z,22.20
2023-05-09T13:36:06.052Z,22.20
2023-05-09T13:37:03.580Z,22.20
2023-05-09T13:39:03.468Z,22.30
2023-05-09T13:40:04.084Z,22.40
2023-05-09T13:41:03.673Z,22.40
2023-05-09T13:42:03.280Z,22.40
2023-05-09T13:43:03.826Z,22.50
2023-05-09T13:45:03.872Z,22.40
2023-05-09T13:46:06.106Z,22.40
2023-05-09T13:47:06.271Z,22.40
2023-05-09T13:49:03.683Z,22.40
2023-05-09T13:52:03.487Z,22.40
2023-05-09T13:53:06.708Z,22.50
2023-05-09T13:54:05.836Z,22.50
2023-05-09T13:56:06.336Z,22.50
2023-05-09T13:57:03.851Z,22.50
2023-05-09T13:58:03.393Z,22.50
2023-05-09T13:59:04.093Z,22.40
2023-05-09T14:00:06.218Z,22.50
2023-05-09T14:01:03.764Z,22.50
2023-05-09T14:02:05.948Z,22.50
2023-05-09T14:03:06.129Z,22.50
2023-05-09T14:04:03.866Z,22.50
2023-05-09T14:05:03.485Z,22.50
2023-05-09T14:06:04.076Z,22.50
2023-05-09T14:07:03.719Z,22.50
2023-05-09T14:09:04.123Z,22.50
2023-05-09T14:11:04.148Z,22.50
2023-05-09T14:12:03.848Z,22.50
2023-05-09T14:14:09.010Z,22.50
2023-05-09T14:15:05.923Z,22.50
2023-05-09T14:16:03.562Z,22.50
2023-05-09T14:17:03.406Z,22.50
2023-05-09T14:18:04.098Z,22.50
2023-05-09T14:20:06.005Z,22.40
2023-05-09T14:21:03.569Z,22.40
2023-05-09T14:22:05.839Z,22.40
2023-05-09T14:23:03.393Z,22.40
2023-05-09T14:24:04.087Z,22.40
2023-05-09T14:25:08.800Z,22.40
2023-05-09T14:26:16.092Z,22.30
2023-05-09T14:27:06.186Z,22.30
2023-05-09T14:28:06.320Z,22.30
2023-05-09T14:29:03.825Z,22.30
2023-05-09T14:30:05.977Z,22.30
2023-05-09T14:31:03.483Z,22.30
2023-05-09T14:32:05.906Z,22.20
2023-05-09T14:34:03.902Z,22.20
2023-05-09T14:36:03.510Z,22.20
2023-05-09T14:37:03.233Z,22.20
2023-05-09T14:38:06.416Z,22.20
2023-05-09T14:39:06.473Z,22.20
2023-05-09T14:40:03.909Z,22.20
2023-05-09T14:41:03.578Z,22.20
2023-05-09T14:42:04.315Z,22.20
2023-05-09T14:43:08.944Z,22.20
2023-05-09T14:44:03.746Z,22.20
2023-05-09T14:46:04.283Z,22.40
2023-05-09T14:48:03.350Z,22.40
2023-05-09T14:49:05.689Z,22.40
2023-05-09T14:51:06.227Z,22.40
2023-05-09T14:52:06.239Z,22.40
2023-05-09T14:53:06.269Z,22.40
2023-05-09T14:54:06.313Z,22.40
2023-05-09T14:55:06.402Z,22.40
2023-05-09T14:56:03.911Z,22.40
2023-05-09T14:57:03.435Z,22.40
2023-05-09T14:58:04.210Z,22.40
2023-05-09T14:59:06.320Z,22.30
2023-05-09T15:00:20.081Z,22.30
2023-05-09T15:02:10.912Z,22.30
2023-05-09T15:03:03.525Z,22.30
2023-05-09T15:04:06.727Z,22.30
2023-05-09T15:05:05.961Z,22.20
2023-05-09T15:07:03.911Z,22.30
2023-05-09T15:09:04.296Z,15.70
2023-05-09T15:10:03.863Z,22.10
2023-05-09T15:11:06.359Z,22.10
2023-05-09T15:12:03.869Z,22.10
2023-05-09T15:13:08.729Z,22.10
2023-05-09T15:15:06.630Z,22.20
2023-05-09T15:16:04.211Z,22.20
2023-05-09T15:17:03.879Z,22.10
2023-05-09T15:18:06.217Z,22.10
2023-05-09T15:19:05.648Z,22.10
2023-05-09T15:20:03.451Z,22.10
2023-05-09T15:21:06.648Z,22.00
2023-05-09T15:22:04.242Z,22.10
2023-05-09T15:24:08.662Z,22.00
2023-05-09T15:25:04.743Z,22.00
2023-05-09T15:26:03.573Z,22.00
2023-05-09T15:27:03.211Z,22.00
2023-05-09T15:28:06.524Z,21.90
2023-05-09T15:29:03.975Z,21.90
2023-05-09T15:31:08.993Z,21.90
2023-05-09T15:32:03.620Z,21.90
2023-05-09T15:33:05.827Z,22.00
2023-05-09T15:34:06.031Z,22.00
2023-05-09T15:35:03.515Z,21.90
2023-05-09T15:36:06.682Z,21.90
2023-05-09T15:38:03.854Z,21.90
2023-05-09T15:40:08.920Z,21.90
2023-05-09T15:41:03.585Z,21.90
2023-05-09T15:42:04.182Z,21.90
2023-05-09T15:43:04.765Z,21.90
2023-05-09T15:45:03.405Z,21.80
2023-05-09T15:46:04.094Z,21.80
2023-05-09T15:48:03.298Z,21.70
2023-05-09T15:49:06.670Z,21.70
2023-05-09T15:51:06.756Z,21.60
2023-05-09T15:55:08.516Z,21.70
2023-05-09T15:56:06.828Z,21.60
2023-05-09T15:57:06.555Z,21.70
2023-05-09T15:58:03.556Z,21.60